• Join FlightAware (Why Join?)
  • Login
  • US Flag 
11:02PM EST


 

Airport Tracker/Info


-or-


 

Live Flight TrackerFlight Track Log ✈ SWA127 ✈ 19-Apr-2013 ✈ KMCI - KHOU

Flight Track Log - Related Links

Times and Time Zones

All times are in EDT time to prevent confusion due to time zone crossing. See the SWA127 flight status page for this flight to view local times or setup timezone preferences in your user account.

Time Position Orientation Groundspeed Altitude Reporting Facility
EDT Latitude Longitude Course Direction KTS MPH feet Rate Location/Type
08:50AM 39.3167 -94.7167 346° North 171 197 1,500  Level Kansas City TRACON
08:50AM 39.3342 -94.7222 346° North 163 188 2,300 1,920 Climbing Kansas City Center
08:51AM 39.3203 -94.7711 250° West 215 247 4,200 2,340 Climbing Kansas City Center
08:52AM 39.2361 -94.7931 191° South 275 316 7,100 2,820 Climbing Kansas City Center
08:53AM 39.1583 -94.8214 196° South 299 344 10,000 2,400 Climbing Kansas City Center
08:54AM 39.0706 -94.8489 194° South 337 388 12,000 2,580 Climbing Kansas City Center
08:55AM 38.9589 -94.8861 195° South 365 420 15,300 2,760 Climbing Kansas City Center
08:56AM 38.8608 -94.9200 195° South 377 434 17,700 2,220 Climbing Kansas City Center
08:57AM 38.7594 -94.9536 194° South 388 447 20,000 2,220 Climbing Kansas City Center
08:59AM 38.6389 -94.9942 195° South 400 460 22,400 2,280 Climbing Kansas City Center
09:00AM 38.5353 -95.0300 195° South 402 463 24,700 1,860 Climbing Kansas City Center
09:01AM 38.4300 -95.0642 194° South 407 468 26,200 1,500 Climbing Kansas City Center
09:02AM 38.3036 -95.1061 195° South 418 481 27,800 1,380 Climbing Kansas City Center
09:03AM 38.1933 -95.1442 195° South 424 488 29,100 1,500 Climbing Kansas City Center
09:04AM 38.0619 -95.1875 195° South 432 497 30,900 1,680 Climbing Kansas City Center
09:05AM 37.9531 -95.2239 195° South 426 490 32,600 1,140 Climbing Kansas City Center
09:06AM 37.8289 -95.2644 194° South 416 479 33,300 960 Climbing Kansas City Center
09:07AM 37.7131 -95.3000 194° South 423 487 34,600 1,260 Climbing Kansas City Center
09:08AM 37.6022 -95.3403 196° South 416 479 36,000 660 Climbing Kansas City Center
09:09AM 37.4950 -95.3742 194° South 402 463 36,000 -360 Level Kansas City Center
09:10AM 37.3869 -95.4078 194° South 399 459 35,300 -1,020 Descending Kansas City Center
09:11AM 37.2756 -95.4444 195° South 408 470 34,000 -660 Descending Kansas City Center
09:12AM 37.1631 -95.4814 195° South 415 478 34,000  Level Kansas City Center
09:13AM 37.0508 -95.5167 194° South 417 480 34,000  Level Kansas City Center
09:14AM 36.9383 -95.5528 194° South 416 479 34,000  Level Kansas City Center
09:15AM 36.8256 -95.5883 194° South 417 480 34,000  Level Kansas City Center
09:16AM 36.6900 -95.6314 194° South 418 481 34,000  Level Kansas City Center
09:17AM 36.5767 -95.6672 194° South 419 482 34,000  Level Kansas City Center
09:18AM 36.4631 -95.7022 194° South 420 483 34,000  Level Kansas City Center
09:19AM 36.3497 -95.7394 195° South 421 484 34,000  Level Kansas City Center
09:20AM 36.2417 -95.7731 194° South 419 482 34,000  Level Kansas City Center
09:21AM 36.1292 -95.8106 195° South 420 483 34,000  Level Kansas City Center
09:22AM 35.9950 -95.8586 196° South 418 481 34,000  Level Kansas City Center
09:23AM 35.8847 -95.8969 196° South 414 476 34,000 240 Level Kansas City Center
09:24AM 35.7747 -95.9353 196° South 411 473 34,500 480 Climbing Kansas City Center
09:25AM 35.6667 -95.9731 196° South 405 466 35,000 300 Climbing Kansas City Center
09:26AM 35.5881 -96.0019 197° South 415 478 35,000  Level Fort Worth Center
09:27AM 35.4800 -96.0369 195° South 410 472 35,000  Level Fort Worth Center
09:28AM 35.3742 -96.0744 196° South 405 466 35,000  Level Fort Worth Center
09:29AM 35.2681 -96.1092 195° South 399 459 35,000  Level Fort Worth Center
09:30AM 35.1622 -96.1464 196° South 399 459 35,000  Level Fort Worth Center
09:31AM 35.0581 -96.1808 195° South 394 453 35,000  Level Fort Worth Center
09:32AM 34.9542 -96.2178 196° South 394 453 35,000  Level Fort Worth Center
09:33AM 34.8503 -96.2547 196° South 394 453 35,000  Level Fort Worth Center
09:34AM 34.7464 -96.2889 195° South 394 453 35,000  Level Fort Worth Center
09:35AM 34.6422 -96.3256 196° South 394 453 35,000  Level Fort Worth Center
09:36AM 34.5383 -96.3572 194° South 394 453 35,000  Level Fort Worth Center
09:37AM 34.4322 -96.3964 197° South 394 453 35,000  Level Fort Worth Center
09:38AM 34.3281 -96.4328 196° South 394 453 35,000  Level Fort Worth Center
09:39AM 34.2219 -96.4667 195° South 394 453 35,000  Level Fort Worth Center
09:40AM 34.1178 -96.5028 196° South 394 453 35,000  Level Fort Worth Center
09:41AM 34.0181 -96.5364 196° South 376 433 35,000  Level Fort Worth Center
09:42AM 33.9139 -96.5700 195° South 382 440 35,000  Level Fort Worth Center
09:43AM 33.8097 -96.6061 196° South 387 445 35,000  Level Fort Worth Center
09:44AM 33.7014 -96.6419 195° South 392 451 35,000  Level Fort Worth Center
09:45AM 33.6078 -96.6703 194° South 397 457 35,000  Level Fort Worth Center
09:46AM 33.5014 -96.7061 196° South 396 456 35,000  Level Fort Worth Center
09:47AM 33.3953 -96.7417 196° South 396 456 35,000  Level Fort Worth Center
09:48AM 33.2889 -96.7747 195° South 396 456 35,000  Level Fort Worth Center
09:49AM 33.1847 -96.8103 196° South 396 456 35,000  Level Fort Worth Center
09:50AM 33.0658 -96.8483 195° South 396 456 35,000  Level Fort Worth Center
09:51AM 32.9617 -96.8836 196° South 396 456 35,000  Level Fort Worth Center
09:52AM 32.8511 -96.9017 188° South 396 456 35,000  Level Fort Worth Center
09:53AM 32.7364 -96.8947 177° South 409 471 35,000  Level Fort Worth Center
09:54AM 32.6214 -96.8881 177° South 414 476 35,000  Level Fort Worth Center
09:55AM 32.5086 -96.8814 177° South 414 476 35,000  Level Fort Worth Center
09:56AM 32.4064 -96.8769 178° South 414 476 35,000  Level Fort Worth Center
09:57AM 32.2936 -96.8703 177° South 414 476 35,000  Level Fort Worth Center
09:58AM 32.1789 -96.8661 178° South 414 476 35,000  Level Fort Worth Center
09:59AM 32.0639 -96.8619 178° South 414 476 35,000  Level Fort Worth Center
10:00AM 31.9406 -96.8456 174° South 421 484 35,000  Level Fort Worth Center
10:01AM 31.8217 -96.8314 174° South 421 484 35,000  Level Fort Worth Center
10:03AM 31.5889 -96.8025 174° South 414 476 35,000  Level Houston Center
10:04AM 31.4722 -96.7869 174° South 414 476 35,000 -480 Level Houston Center
10:05AM 31.3539 -96.7358 160° South 444 511 34,100 -1,200 Descending Houston Center
10:06AM 31.2372 -96.6800 158° South 445 512 32,600 -1,500 Descending Houston Center
10:07AM 31.1203 -96.6250 158° South 445 512 31,100 -1,560 Descending Houston Center
10:08AM 31.0044 -96.5708 158° South 443 510 29,400 -1,740 Descending Houston Center
10:09AM 30.8875 -96.5178 159° South 443 510 27,600 -3,000 Descending Houston Center
10:10AM 30.7525 -96.4553 158° South 441 507 23,300 -3,420 Descending Houston Center
10:11AM 30.6392 -96.4042 159° South 432 497 20,600 -2,520 Descending Houston Center
10:12AM 30.5344 -96.3561 158° South 403 464 18,100 -2,640 Descending Houston Center
10:13AM 30.4347 -96.3114 159° South 382 440 15,200 -2,880 Descending Houston Center
10:14AM 30.3475 -96.2719 159° South 389 448 12,800 -2,760 Descending Houston Center
10:15AM 30.2844 -96.2428 158° South 382 440 11,200 -1,500 Descending Houston Center
10:15AM 30.2333 -96.2181 157° South 380 437 11,000 -240 Descending Houston Center
10:16AM 30.1858 -96.1958 158° South 366 421 11,000  Level Houston Center
10:16AM 30.1386 -96.1706 155° Southeast 369 425 11,000  Level Houston Center
10:17AM 30.0956 -96.1458 154° Southeast 359 413 11,000  Level Houston Center
10:17AM 30.0469 -96.0958 138° Southeast 361 415 11,000  Level Houston Center
10:18AM 30.0103 -96.0564 137° Southeast 365 420 11,000  Level Houston Center
10:18AM 29.9725 -96.0167 138° Southeast 361 415 11,000  Level Houston Center
10:19AM 29.9342 -95.9758 137° Southeast 361 415 11,000  Level Houston Center
10:19AM 29.9036 -95.9428 137° Southeast 363 418 11,000  Level Houston Center
10:20AM 29.8622 -95.8975 137° Southeast 357 411 11,000  Level Houston Center
10:20AM 29.8333 -95.8675 138° Southeast 349 402 11,000  Level Houston Center
10:21AM 29.7925 -95.8214 136° Southeast 327 376 11,000 -120 Level Houston Center
10:21AM 29.7564 -95.7844 138° Southeast 313 360 10,900 -780 Descending Houston Center
10:22AM 29.7369 -95.7628 136° Southeast 289 333 10,300 -1,860 Descending Houston Center
10:22AM 29.6958 -95.7206 138° Southeast 298 343 9,000 -1,920 Descending Houston Center
10:23AM 29.6675 -95.6892 136° Southeast 303 349 8,200 -1,860 Descending Houston Center
10:23AM 29.6344 -95.6528 136° Southeast 305 351 7,100 -1,920 Descending Houston Center
10:24AM 29.6047 -95.6219 138° Southeast 318 366 6,300 -1,080 Descending Houston Center
10:25AM 29.5700 -95.5850 137° Southeast 314 361 6,000 -600 Descending Houston Center
10:25AM 29.5478 -95.5494 126° Southeast 268 308 5,700 -720 Descending Houston Center
10:26AM 29.5472 -95.5125 91° East 265 305 5,300 -1,140 Descending Houston Center
10:26AM 29.5481 -95.4822 88° East 213 245 4,700 -1,560 Descending Houston Center
10:27AM 29.5503 -95.4458 86° East 219 252 3,700 -1,620 Descending Houston Center
10:27AM 29.5508 -95.4194 89° East 191 220 3,100 -1,260 Descending Houston Center
10:28AM 29.5578 -95.3817 78° East 179 206 2,400 -780 Descending Houston Center
10:29AM 29.5811 -95.3458 53° Northeast 153 176 1,700 -720 Descending Houston Center
10:30AM 29.6069 -95.3197 41° Northeast 138 159 1,000 -660 Descending Houston Center
10:31AM 29.6308 -95.2947 42° Northeast 125 144 400 -480 Descending Houston Center
10:32AM 29.6611 -95.2636 42° Northeast 123 142 100 -300 Descending Houston Center